sensor_id;sensor_type;location;lat;lon;timestamp;temperature;humidity
44607;DHT22;30315;46.072;14.474;2023-06-04T00:02:11;21.40;74.70
44607;DHT22;30315;46.072;14.474;2023-06-04T00:04:38;21.50;74.90
44607;DHT22;30315;46.072;14.474;2023-06-04T00:07:06;21.40;75.10
44607;DHT22;30315;46.072;14.474;2023-06-04T00:09:33;21.40;75.50
44607;DHT22;30315;46.072;14.474;2023-06-04T00:12:01;21.40;75.90
44607;DHT22;30315;46.072;14.474;2023-06-04T00:14:28;21.40;76.40
44607;DHT22;30315;46.072;14.474;2023-06-04T00:16:55;21.40;76.70
44607;DHT22;30315;46.072;14.474;2023-06-04T00:19:22;21.30;76.80
44607;DHT22;30315;46.072;14.474;2023-06-04T00:21:49;21.30;76.70
44607;DHT22;30315;46.072;14.474;2023-06-04T00:24:16;21.30;76.50
44607;DHT22;30315;46.072;14.474;2023-06-04T00:26:44;21.20;76.60
44607;DHT22;30315;46.072;14.474;2023-06-04T00:29:11;21.20;76.70
44607;DHT22;30315;46.072;14.474;2023-06-04T00:31:38;21.20;77.50
44607;DHT22;30315;46.072;14.474;2023-06-04T00:34:05;21.20;76.90
44607;DHT22;30315;46.072;14.474;2023-06-04T00:36:32;21.20;76.90
44607;DHT22;30315;46.072;14.474;2023-06-04T00:38:59;21.20;77.00
44607;DHT22;30315;46.072;14.474;2023-06-04T00:41:26;21.20;77.20
44607;DHT22;30315;46.072;14.474;2023-06-04T00:43:53;21.10;77.20
44607;DHT22;30315;46.072;14.474;2023-06-04T00:46:25;21.10;77.10
44607;DHT22;30315;46.072;14.474;2023-06-04T00:48:54;21.10;77.20
44607;DHT22;30315;46.072;14.474;2023-06-04T00:51:22;21.10;77.40
44607;DHT22;30315;46.072;14.474;2023-06-04T00:53:50;21.10;78.10
44607;DHT22;30315;46.072;14.474;2023-06-04T00:56:18;21.10;78.00
44607;DHT22;30315;46.072;14.474;2023-06-04T00:58:45;21.10;77.50
44607;DHT22;30315;46.072;14.474;2023-06-04T01:03:55;21.10;77.20
44607;DHT22;30315;46.072;14.474;2023-06-04T01:06:30;21.10;77.40
44607;DHT22;30315;46.072;14.474;2023-06-04T01:09:00;21.10;77.50
44607;DHT22;30315;46.072;14.474;2023-06-04T01:11:35;21.00;77.30
44607;DHT22;30315;46.072;14.474;2023-06-04T01:14:03;21.00;77.30
44607;DHT22;30315;46.072;14.474;2023-06-04T01:16:44;21.00;77.70
44607;DHT22;30315;46.072;14.474;2023-06-04T01:25:04;21.00;78.30
44607;DHT22;30315;46.072;14.474;2023-06-04T01:27:32;21.00;78.40
44607;DHT22;30315;46.072;14.474;2023-06-04T01:30:02;21.00;78.30
44607;DHT22;30315;46.072;14.474;2023-06-04T01:32:30;20.90;78.10
44607;DHT22;30315;46.072;14.474;2023-06-04T01:34:57;20.90;78.20
44607;DHT22;30315;46.072;14.474;2023-06-04T01:37:25;20.80;78.10
44607;DHT22;30315;46.072;14.474;2023-06-04T01:39:53;20.80;78.30
44607;DHT22;30315;46.072;14.474;2023-06-04T01:42:20;20.80;78.40
44607;DHT22;30315;46.072;14.474;2023-06-04T01:44:47;20.70;78.30
44607;DHT22;30315;46.072;14.474;2023-06-04T01:47:13;20.80;78.70
44607;DHT22;30315;46.072;14.474;2023-06-04T01:49:40;20.70;78.80
44607;DHT22;30315;46.072;14.474;2023-06-04T01:52:07;20.70;78.90
44607;DHT22;30315;46.072;14.474;2023-06-04T01:54:34;20.70;78.90
44607;DHT22;30315;46.072;14.474;2023-06-04T01:57:02;20.70;79.00
44607;DHT22;30315;46.072;14.474;2023-06-04T01:59:30;20.70;79.10
44607;DHT22;30315;46.072;14.474;2023-06-04T02:01:58;20.60;79.10
44607;DHT22;30315;46.072;14.474;2023-06-04T02:04:25;20.60;79.10
44607;DHT22;30315;46.072;14.474;2023-06-04T02:06:53;20.60;79.40
44607;DHT22;30315;46.072;14.474;2023-06-04T02:09:19;20.50;79.40
44607;DHT22;30315;46.072;14.474;2023-06-04T02:11:47;20.50;79.40
44607;DHT22;30315;46.072;14.474;2023-06-04T02:14:14;20.50;79.40
44607;DHT22;30315;46.072;14.474;2023-06-04T02:16:41;20.50;79.40
44607;DHT22;30315;46.072;14.474;2023-06-04T02:22:11;20.30;79.30
44607;DHT22;30315;46.072;14.474;2023-06-04T02:24:39;20.30;79.60
44607;DHT22;30315;46.072;14.474;2023-06-04T02:27:09;20.30;79.80
44607;DHT22;30315;46.072;14.474;2023-06-04T02:29:38;20.20;79.70
44607;DHT22;30315;46.072;14.474;2023-06-04T02:32:05;20.20;79.80
44607;DHT22;30315;46.072;14.474;2023-06-04T02:34:34;20.20;79.90
44607;DHT22;30315;46.072;14.474;2023-06-04T02:37:02;20.10;80.00
44607;DHT22;30315;46.072;14.474;2023-06-04T02:39:29;20.10;79.90
44607;DHT22;30315;46.072;14.474;2023-06-04T02:41:56;20.10;79.80
44607;DHT22;30315;46.072;14.474;2023-06-04T02:44:23;20.00;79.80
44607;DHT22;30315;46.072;14.474;2023-06-04T02:46:53;20.00;79.90
44607;DHT22;30315;46.072;14.474;2023-06-04T02:49:20;20.00;79.70
44607;DHT22;30315;46.072;14.474;2023-06-04T02:51:47;19.90;79.80
44607;DHT22;30315;46.072;14.474;2023-06-04T02:54:14;19.90;79.70
44607;DHT22;30315;46.072;14.474;2023-06-04T02:56:41;19.80;79.60
44607;DHT22;30315;46.072;14.474;2023-06-04T02:59:11;19.80;79.80
44607;DHT22;30315;46.072;14.474;2023-06-04T03:01:40;19.70;79.90
44607;DHT22;30315;46.072;14.474;2023-06-04T03:04:07;19.70;80.80
44607;DHT22;30315;46.072;14.474;2023-06-04T03:06:37;19.70;80.20
44607;DHT22;30315;46.072;14.474;2023-06-04T03:09:11;19.70;80.20
44607;DHT22;30315;46.072;14.474;2023-06-04T03:11:38;19.70;80.40
44607;DHT22;30315;46.072;14.474;2023-06-04T03:14:07;19.60;80.40
44607;DHT22;30315;46.072;14.474;2023-06-04T03:16:35;19.60;80.30
44607;DHT22;30315;46.072;14.474;2023-06-04T03:19:06;19.60;80.30
44607;DHT22;30315;46.072;14.474;2023-06-04T03:21:34;19.60;80.60
44607;DHT22;30315;46.072;14.474;2023-06-04T03:24:01;19.50;80.80
44607;DHT22;30315;46.072;14.474;2023-06-04T03:26:28;19.50;80.80
44607;DHT22;30315;46.072;14.474;2023-06-04T03:28:55;19.60;80.90
44607;DHT22;30315;46.072;14.474;2023-06-04T03:31:22;19.50;80.90
44607;DHT22;30315;46.072;14.474;2023-06-04T03:33:49;19.60;81.00
44607;DHT22;30315;46.072;14.474;2023-06-04T03:36:17;19.60;81.00
44607;DHT22;30315;46.072;14.474;2023-06-04T03:38:45;19.50;80.90
44607;DHT22;30315;46.072;14.474;2023-06-04T03:41:13;19.60;81.00
44607;DHT22;30315;46.072;14.474;2023-06-04T03:43:41;19.60;81.20
44607;DHT22;30315;46.072;14.474;2023-06-04T03:46:10;19.50;81.10
44607;DHT22;30315;46.072;14.474;2023-06-04T03:48:37;19.50;80.90
44607;DHT22;30315;46.072;14.474;2023-06-04T03:51:04;19.50;81.20
44607;DHT22;30315;46.072;14.474;2023-06-04T03:53:33;19.60;81.40
44607;DHT22;30315;46.072;14.474;2023-06-04T03:56:01;19.50;81.30
44607;DHT22;30315;46.072;14.474;2023-06-04T03:58:28;19.50;81.80
44607;DHT22;30315;46.072;14.474;2023-06-04T04:00:57;19.60;81.40
44607;DHT22;30315;46.072;14.474;2023-06-04T04:03:24;19.60;81.40
44607;DHT22;30315;46.072;14.474;2023-06-04T04:05:51;19.60;81.50
44607;DHT22;30315;46.072;14.474;2023-06-04T04:08:19;19.60;81.40
44607;DHT22;30315;46.072;14.474;2023-06-04T04:10:49;19.60;81.70
44607;DHT22;30315;46.072;14.474;2023-06-04T04:13:16;19.60;81.60
44607;DHT22;30315;46.072;14.474;2023-06-04T04:15:43;19.70;82.00
44607;DHT22;30315;46.072;14.474;2023-06-04T04:18:11;19.60;81.90
44607;DHT22;30315;46.072;14.474;2023-06-04T04:20:39;19.70;82.20
44607;DHT22;30315;46.072;14.474;2023-06-04T04:23:09;19.60;82.10
44607;DHT22;30315;46.072;14.474;2023-06-04T04:25:40;19.70;82.30
44607;DHT22;30315;46.072;14.474;2023-06-04T04:28:08;19.60;82.30
44607;DHT22;30315;46.072;14.474;2023-06-04T04:30:37;19.70;82.60
44607;DHT22;30315;46.072;14.474;2023-06-04T04:33:05;19.70;82.70
44607;DHT22;30315;46.072;14.474;2023-06-04T04:35:37;19.70;82.60
44607;DHT22;30315;46.072;14.474;2023-06-04T04:38:05;19.70;82.70
44607;DHT22;30315;46.072;14.474;2023-06-04T04:40:38;19.70;82.90
44607;DHT22;30315;46.072;14.474;2023-06-04T04:43:07;19.70;82.80
44607;DHT22;30315;46.072;14.474;2023-06-04T04:45:35;19.70;82.90
44607;DHT22;30315;46.072;14.474;2023-06-04T04:48:04;19.70;82.80
44607;DHT22;30315;46.072;14.474;2023-06-04T04:50:31;19.70;83.00
44607;DHT22;30315;46.072;14.474;2023-06-04T04:52:59;19.70;82.70
44607;DHT22;30315;46.072;14.474;2023-06-04T04:55:29;19.80;83.00
44607;DHT22;30315;46.072;14.474;2023-06-04T04:57:56;19.80;83.20
44607;DHT22;30315;46.072;14.474;2023-06-04T05:00:24;19.80;83.10
44607;DHT22;30315;46.072;14.474;2023-06-04T05:02:54;19.80;83.00
44607;DHT22;30315;46.072;14.474;2023-06-04T05:05:21;19.80;83.20
44607;DHT22;30315;46.072;14.474;2023-06-04T05:07:49;19.80;83.20
44607;DHT22;30315;46.072;14.474;2023-06-04T05:10:18;19.80;83.40
44607;DHT22;30315;46.072;14.474;2023-06-04T05:12:53;19.80;83.40
44607;DHT22;30315;46.072;14.474;2023-06-04T05:15:25;19.80;83.50
44607;DHT22;30315;46.072;14.474;2023-06-04T05:17:55;19.80;83.10
44607;DHT22;30315;46.072;14.474;2023-06-04T05:20:25;19.50;82.70
44607;DHT22;30315;46.072;14.474;2023-06-04T05:22:52;19.80;83.40
44607;DHT22;30315;46.072;14.474;2023-06-04T05:25:22;19.80;83.40
44607;DHT22;30315;46.072;14.474;2023-06-04T05:27:50;19.90;83.50
44607;DHT22;30315;46.072;14.474;2023-06-04T05:30:19;19.90;83.20
44607;DHT22;30315;46.072;14.474;2023-06-04T05:32:46;19.80;82.80
44607;DHT22;30315;46.072;14.474;2023-06-04T05:35:16;19.90;82.90
44607;DHT22;30315;46.072;14.474;2023-06-04T05:37:44;19.90;82.70
44607;DHT22;30315;46.072;14.474;2023-06-04T05:40:14;19.80;83.00
44607;DHT22;30315;46.072;14.474;2023-06-04T05:42:43;19.80;83.20
44607;DHT22;30315;46.072;14.474;2023-06-04T05:45:10;19.80;83.60
44607;DHT22;30315;46.072;14.474;2023-06-04T05:47:39;19.80;83.70
44607;DHT22;30315;46.072;14.474;2023-06-04T05:50:07;19.90;84.00
44607;DHT22;30315;46.072;14.474;2023-06-04T05:52:35;20.00;84.00
44607;DHT22;30315;46.072;14.474;2023-06-04T05:55:07;20.00;83.80
44607;DHT22;30315;46.072;14.474;2023-06-04T05:57:36;20.00;83.80
44607;DHT22;30315;46.072;14.474;2023-06-04T06:00:03;20.10;83.70
44607;DHT22;30315;46.072;14.474;2023-06-04T06:02:39;20.10;83.70
44607;DHT22;30315;46.072;14.474;2023-06-04T06:05:18;20.10;83.40
44607;DHT22;30315;46.072;14.474;2023-06-04T06:07:46;20.10;83.10
44607;DHT22;30315;46.072;14.474;2023-06-04T06:10:14;20.20;83.40
44607;DHT22;30315;46.072;14.474;2023-06-04T06:12:42;20.20;83.30
44607;DHT22;30315;46.072;14.474;2023-06-04T06:15:10;20.20;83.00
44607;DHT22;30315;46.072;14.474;2023-06-04T06:17:38;20.30;83.30
44607;DHT22;30315;46.072;14.474;2023-06-04T06:20:06;20.40;83.40
44607;DHT22;30315;46.072;14.474;2023-06-04T06:22:34;20.40;83.30
44607;DHT22;30315;46.072;14.474;2023-06-04T06:25:03;20.40;83.30
44607;DHT22;30315;46.072;14.474;2023-06-04T06:27:35;20.50;83.50
44607;DHT22;30315;46.072;14.474;2023-06-04T06:30:04;20.50;83.40
44607;DHT22;30315;46.072;14.474;2023-06-04T06:32:31;20.60;83.20
44607;DHT22;30315;46.072;14.474;2023-06-04T06:34:58;20.50;82.90
44607;DHT22;30315;46.072;14.474;2023-06-04T06:37:25;20.60;82.80
44607;DHT22;30315;46.072;14.474;2023-06-04T06:39:53;20.70;82.20
44607;DHT22;30315;46.072;14.474;2023-06-04T06:42:20;20.80;82.20
44607;DHT22;30315;46.072;14.474;2023-06-04T06:44:49;20.80;82.10
44607;DHT22;30315;46.072;14.474;2023-06-04T06:47:17;20.80;81.50
44607;DHT22;30315;46.072;14.474;2023-06-04T06:49:44;20.90;81.30
44607;DHT22;30315;46.072;14.474;2023-06-04T06:52:11;20.90;80.70
44607;DHT22;30315;46.072;14.474;2023-06-04T06:54:38;21.00;80.80
44607;DHT22;30315;46.072;14.474;2023-06-04T06:57:05;21.10;80.40
44607;DHT22;30315;46.072;14.474;2023-06-04T06:59:35;21.10;81.10
44607;DHT22;30315;46.072;14.474;2023-06-04T07:02:03;21.20;80.50
44607;DHT22;30315;46.072;14.474;2023-06-04T07:04:30;21.30;80.20
44607;DHT22;30315;46.072;14.474;2023-06-04T07:06:57;21.30;79.60
44607;DHT22;30315;46.072;14.474;2023-06-04T07:09:24;21.40;79.10
44607;DHT22;30315;46.072;14.474;2023-06-04T07:11:51;21.50;79.60
44607;DHT22;30315;46.072;14.474;2023-06-04T07:14:18;21.60;79.50
44607;DHT22;30315;46.072;14.474;2023-06-04T07:16:45;21.70;79.40
44607;DHT22;30315;46.072;14.474;2023-06-04T07:19:12;21.80;79.00
44607;DHT22;30315;46.072;14.474;2023-06-04T07:21:39;21.80;78.60
44607;DHT22;30315;46.072;14.474;2023-06-04T07:24:06;21.80;78.50
44607;DHT22;30315;46.072;14.474;2023-06-04T07:26:33;21.90;78.00
44607;DHT22;30315;46.072;14.474;2023-06-04T07:29:01;22.00;77.10
44607;DHT22;30315;46.072;14.474;2023-06-04T07:31:28;22.00;77.10
44607;DHT22;30315;46.072;14.474;2023-06-04T07:33:55;22.00;76.60
44607;DHT22;30315;46.072;14.474;2023-06-04T07:36:22;22.00;76.10
44607;DHT22;30315;46.072;14.474;2023-06-04T07:38:49;22.00;75.30
44607;DHT22;30315;46.072;14.474;2023-06-04T07:41:16;22.00;75.30
44607;DHT22;30315;46.072;14.474;2023-06-04T07:43:43;22.10;75.50
44607;DHT22;30315;46.072;14.474;2023-06-04T07:46:10;22.10;75.60
44607;DHT22;30315;46.072;14.474;2023-06-04T07:48:38;22.20;75.20
44607;DHT22;30315;46.072;14.474;2023-06-04T07:51:04;22.20;74.90
44607;DHT22;30315;46.072;14.474;2023-06-04T07:53:32;22.20;75.00
44607;DHT22;30315;46.072;14.474;2023-06-04T07:55:59;22.20;74.80
44607;DHT22;30315;46.072;14.474;2023-06-04T07:58:26;22.20;74.70
44607;DHT22;30315;46.072;14.474;2023-06-04T08:00:53;22.30;74.70
44607;DHT22;30315;46.072;14.474;2023-06-04T08:03:20;22.30;74.70
44607;DHT22;30315;46.072;14.474;2023-06-04T08:05:48;22.30;75.20
44607;DHT22;30315;46.072;14.474;2023-06-04T08:08:15;22.30;74.10
44607;DHT22;30315;46.072;14.474;2023-06-04T08:10:42;22.40;73.80
44607;DHT22;30315;46.072;14.474;2023-06-04T08:13:09;22.30;74.00
44607;DHT22;30315;46.072;14.474;2023-06-04T08:15:36;22.40;74.20
44607;DHT22;30315;46.072;14.474;2023-06-04T08:18:03;22.50;74.00
44607;DHT22;30315;46.072;14.474;2023-06-04T08:20:30;22.50;73.60
44607;DHT22;30315;46.072;14.474;2023-06-04T08:22:57;22.60;73.80
44607;DHT22;30315;46.072;14.474;2023-06-04T08:25:24;22.70;73.70
44607;DHT22;30315;46.072;14.474;2023-06-04T08:27:51;22.70;72.90
44607;DHT22;30315;46.072;14.474;2023-06-04T08:30:18;22.80;72.40
44607;DHT22;30315;46.072;14.474;2023-06-04T08:32:45;22.70;71.60
44607;DHT22;30315;46.072;14.474;2023-06-04T08:35:12;22.90;71.80
44607;DHT22;30315;46.072;14.474;2023-06-04T08:37:40;22.90;71.20
44607;DHT22;30315;46.072;14.474;2023-06-04T08:40:07;22.90;70.80
44607;DHT22;30315;46.072;14.474;2023-06-04T08:42:43;23.00;69.40
44607;DHT22;30315;46.072;14.474;2023-06-04T08:45:13;23.00;69.00
44607;DHT22;30315;46.072;14.474;2023-06-04T08:47:44;23.00;68.80
44607;DHT22;30315;46.072;14.474;2023-06-04T08:50:17;23.00;68.50
44607;DHT22;30315;46.072;14.474;2023-06-04T08:52:44;23.10;68.00
44607;DHT22;30315;46.072;14.474;2023-06-04T08:55:13;23.10;67.50
44607;DHT22;30315;46.072;14.474;2023-06-04T08:57:42;23.10;67.30
44607;DHT22;30315;46.072;14.474;2023-06-04T09:00:10;23.20;68.00
44607;DHT22;30315;46.072;14.474;2023-06-04T09:02:37;23.20;67.30
44607;DHT22;30315;46.072;14.474;2023-06-04T09:05:06;23.30;66.60
44607;DHT22;30315;46.072;14.474;2023-06-04T09:07:39;23.40;67.00
44607;DHT22;30315;46.072;14.474;2023-06-04T09:10:07;23.50;67.30
44607;DHT22;30315;46.072;14.474;2023-06-04T09:12:43;23.50;67.10
44607;DHT22;30315;46.072;14.474;2023-06-04T09:15:13;23.50;66.20
44607;DHT22;30315;46.072;14.474;2023-06-04T09:17:40;23.50;66.50
44607;DHT22;30315;46.072;14.474;2023-06-04T09:20:07;23.50;66.70
44607;DHT22;30315;46.072;14.474;2023-06-04T09:22:37;23.60;67.30
44607;DHT22;30315;46.072;14.474;2023-06-04T09:25:06;23.60;66.80
44607;DHT22;30315;46.072;14.474;2023-06-04T09:27:39;23.70;66.80
44607;DHT22;30315;46.072;14.474;2023-06-04T09:30:09;23.70;67.10
44607;DHT22;30315;46.072;14.474;2023-06-04T09:32:36;23.80;67.20
44607;DHT22;30315;46.072;14.474;2023-06-04T09:37:41;23.90;66.10
44607;DHT22;30315;46.072;14.474;2023-06-04T09:40:10;24.00;66.10
44607;DHT22;30315;46.072;14.474;2023-06-04T09:42:48;24.00;66.30
44607;DHT22;30315;46.072;14.474;2023-06-04T09:45:30;24.10;66.80
44607;DHT22;30315;46.072;14.474;2023-06-04T09:48:02;24.20;67.70
44607;DHT22;30315;46.072;14.474;2023-06-04T09:50:34;24.30;67.40
44607;DHT22;30315;46.072;14.474;2023-06-04T09:53:17;24.20;67.50
44607;DHT22;30315;46.072;14.474;2023-06-04T09:55:44;24.30;67.80
44607;DHT22;30315;46.072;14.474;2023-06-04T09:58:11;24.40;67.70
44607;DHT22;30315;46.072;14.474;2023-06-04T10:00:43;24.40;67.10
44607;DHT22;30315;46.072;14.474;2023-06-04T10:03:14;24.40;66.50
44607;DHT22;30315;46.072;14.474;2023-06-04T10:05:42;24.40;66.80
44607;DHT22;30315;46.072;14.474;2023-06-04T10:08:09;24.40;66.50
44607;DHT22;30315;46.072;14.474;2023-06-04T10:10:38;24.30;66.30
44607;DHT22;30315;46.072;14.474;2023-06-04T10:13:09;24.30;66.40
44607;DHT22;30315;46.072;14.474;2023-06-04T10:15:41;24.20;65.90
44607;DHT22;30315;46.072;14.474;2023-06-04T10:18:09;24.20;65.90
44607;DHT22;30315;46.072;14.474;2023-06-04T10:20:37;24.20;65.30
44607;DHT22;30315;46.072;14.474;2023-06-04T10:23:05;24.20;65.20
44607;DHT22;30315;46.072;14.474;2023-06-04T10:25:32;24.10;65.30
44607;DHT22;30315;46.072;14.474;2023-06-04T10:28:00;24.10;64.80
44607;DHT22;30315;46.072;14.474;2023-06-04T10:30:28;24.00;65.20
44607;DHT22;30315;46.072;14.474;2023-06-04T10:32:59;24.00;65.70
44607;DHT22;30315;46.072;14.474;2023-06-04T10:35:34;24.00;66.00
44607;DHT22;30315;46.072;14.474;2023-06-04T10:38:11;24.00;65.70
44607;DHT22;30315;46.072;14.474;2023-06-04T10:40:40;24.00;66.00
44607;DHT22;30315;46.072;14.474;2023-06-04T10:43:09;24.00;65.90
44607;DHT22;30315;46.072;14.474;2023-06-04T10:45:37;24.00;66.30
44607;DHT22;30315;46.072;14.474;2023-06-04T10:48:05;24.00;66.70
44607;DHT22;30315;46.072;14.474;2023-06-04T10:50:34;24.10;66.80
44607;DHT22;30315;46.072;14.474;2023-06-04T10:53:01;24.10;67.00
44607;DHT22;30315;46.072;14.474;2023-06-04T10:55:30;24.10;67.00
44607;DHT22;30315;46.072;14.474;2023-06-04T10:57:59;24.10;67.10
44607;DHT22;30315;46.072;14.474;2023-06-04T11:00:40;24.10;67.60
44607;DHT22;30315;46.072;14.474;2023-06-04T11:03:10;24.10;67.80
44607;DHT22;30315;46.072;14.474;2023-06-04T11:05:46;24.10;68.00
44607;DHT22;30315;46.072;14.474;2023-06-04T11:08:13;24.00;67.90
44607;DHT22;30315;46.072;14.474;2023-06-04T11:10:45;24.00;68.40
44607;DHT22;30315;46.072;14.474;2023-06-04T11:13:12;23.90;68.80
44607;DHT22;30315;46.072;14.474;2023-06-04T11:15:44;23.80;69.20
44607;DHT22;30315;46.072;14.474;2023-06-04T11:18:20;23.80;69.60
44607;DHT22;30315;46.072;14.474;2023-06-04T11:20:49;23.70;69.50
44607;DHT22;30315;46.072;14.474;2023-06-04T11:23:16;23.60;69.40
44607;DHT22;30315;46.072;14.474;2023-06-04T11:25:44;23.50;69.50
44607;DHT22;30315;46.072;14.474;2023-06-04T11:28:16;23.40;69.80
44607;DHT22;30315;46.072;14.474;2023-06-04T11:30:59;23.30;70.90
44607;DHT22;30315;46.072;14.474;2023-06-04T11:33:30;23.20;71.90
44607;DHT22;30315;46.072;14.474;2023-06-04T11:35:57;23.10;73.00
44607;DHT22;30315;46.072;14.474;2023-06-04T11:38:24;23.00;74.10
44607;DHT22;30315;46.072;14.474;2023-06-04T11:40:59;22.90;74.80
44607;DHT22;30315;46.072;14.474;2023-06-04T11:43:27;22.70;75.60
44607;DHT22;30315;46.072;14.474;2023-06-04T11:45:55;22.70;75.90
44607;DHT22;30315;46.072;14.474;2023-06-04T11:48:24;22.60;76.50
44607;DHT22;30315;46.072;14.474;2023-06-04T11:50:53;22.50;76.10
44607;DHT22;30315;46.072;14.474;2023-06-04T11:53:20;22.40;76.80
44607;DHT22;30315;46.072;14.474;2023-06-04T11:55:47;22.30;78.10
44607;DHT22;30315;46.072;14.474;2023-06-04T11:58:14;22.30;78.70
44607;DHT22;30315;46.072;14.474;2023-06-04T12:00:42;22.30;79.10
44607;DHT22;30315;46.072;14.474;2023-06-04T12:03:09;22.20;78.70
44607;DHT22;30315;46.072;14.474;2023-06-04T12:05:36;22.20;79.30
44607;DHT22;30315;46.072;14.474;2023-06-04T12:08:08;22.30;79.60
44607;DHT22;30315;46.072;14.474;2023-06-04T12:10:41;22.30;79.80
44607;DHT22;30315;46.072;14.474;2023-06-04T12:13:09;22.20;79.80
44607;DHT22;30315;46.072;14.474;2023-06-04T12:15:36;22.30;79.90
44607;DHT22;30315;46.072;14.474;2023-06-04T12:18:03;22.30;79.90
44607;DHT22;30315;46.072;14.474;2023-06-04T12:20:36;22.30;80.00
44607;DHT22;30315;46.072;14.474;2023-06-04T12:23:04;22.30;80.20
44607;DHT22;30315;46.072;14.474;2023-06-04T12:25:33;22.40;81.00
44607;DHT22;30315;46.072;14.474;2023-06-04T12:28:04;22.40;80.90
44607;DHT22;30315;46.072;14.474;2023-06-04T12:30:37;22.40;81.10
44607;DHT22;30315;46.072;14.474;2023-06-04T12:33:04;22.40;81.10
44607;DHT22;30315;46.072;14.474;2023-06-04T12:35:32;22.30;80.90
44607;DHT22;30315;46.072;14.474;2023-06-04T12:37:59;22.40;81.50
44607;DHT22;30315;46.072;14.474;2023-06-04T12:40:26;22.40;81.30
44607;DHT22;30315;46.072;14.474;2023-06-04T12:42:54;22.40;81.40
44607;DHT22;30315;46.072;14.474;2023-06-04T12:45:22;22.30;81.10
44607;DHT22;30315;46.072;14.474;2023-06-04T12:47:49;22.40;81.30
44607;DHT22;30315;46.072;14.474;2023-06-04T12:50:19;22.30;81.40
44607;DHT22;30315;46.072;14.474;2023-06-04T12:52:48;22.30;81.50
44607;DHT22;30315;46.072;14.474;2023-06-04T12:55:16;22.40;81.40
44607;DHT22;30315;46.072;14.474;2023-06-04T12:57:45;22.40;81.30
44607;DHT22;30315;46.072;14.474;2023-06-04T13:00:13;22.40;81.30
44607;DHT22;30315;46.072;14.474;2023-06-04T13:02:44;22.40;82.10
44607;DHT22;30315;46.072;14.474;2023-06-04T13:05:12;22.50;82.10
44607;DHT22;30315;46.072;14.474;2023-06-04T13:07:38;22.50;81.90
44607;DHT22;30315;46.072;14.474;2023-06-04T13:10:06;22.50;81.80
44607;DHT22;30315;46.072;14.474;2023-06-04T13:12:33;22.50;82.80
44607;DHT22;30315;46.072;14.474;2023-06-04T13:15:00;22.50;82.10
44607;DHT22;30315;46.072;14.474;2023-06-04T13:17:29;22.50;82.10
44607;DHT22;30315;46.072;14.474;2023-06-04T13:19:56;22.60;82.40
44607;DHT22;30315;46.072;14.474;2023-06-04T13:22:23;22.60;82.10
44607;DHT22;30315;46.072;14.474;2023-06-04T13:24:50;22.60;82.10
44607;DHT22;30315;46.072;14.474;2023-06-04T13:27:17;22.70;81.40
44607;DHT22;30315;46.072;14.474;2023-06-04T13:29:44;22.80;81.40
44607;DHT22;30315;46.072;14.474;2023-06-04T13:32:11;22.90;81.50
44607;DHT22;30315;46.072;14.474;2023-06-04T13:34:39;23.00;81.60
44607;DHT22;30315;46.072;14.474;2023-06-04T13:37:06;23.00;81.90
44607;DHT22;30315;46.072;14.474;2023-06-04T13:39:34;23.10;81.60
44607;DHT22;30315;46.072;14.474;2023-06-04T13:42:00;23.20;82.60
44607;DHT22;30315;46.072;14.474;2023-06-04T13:44:27;23.30;81.40
44607;DHT22;30315;46.072;14.474;2023-06-04T13:46:58;23.30;81.60
44607;DHT22;30315;46.072;14.474;2023-06-04T13:49:25;23.40;82.20
44607;DHT22;30315;46.072;14.474;2023-06-04T13:51:52;23.40;82.60
44607;DHT22;30315;46.072;14.474;2023-06-04T13:54:19;23.50;82.80
44607;DHT22;30315;46.072;14.474;2023-06-04T13:56:48;23.50;82.80
44607;DHT22;30315;46.072;14.474;2023-06-04T13:59:15;23.60;82.50
44607;DHT22;30315;46.072;14.474;2023-06-04T14:01:42;23.60;81.60
44607;DHT22;30315;46.072;14.474;2023-06-04T14:04:09;23.60;81.50
44607;DHT22;30315;46.072;14.474;2023-06-04T14:06:38;23.70;82.10
44607;DHT22;30315;46.072;14.474;2023-06-04T14:09:05;23.70;82.40
44607;DHT22;30315;46.072;14.474;2023-06-04T14:11:38;23.70;82.40
44607;DHT22;30315;46.072;14.474;2023-06-04T14:14:06;23.70;82.70
44607;DHT22;30315;46.072;14.474;2023-06-04T14:16:33;23.80;83.00
44607;DHT22;30315;46.072;14.474;2023-06-04T14:19:00;23.90;83.30
44607;DHT22;30315;46.072;14.474;2023-06-04T14:21:30;24.00;83.40
44607;DHT22;30315;46.072;14.474;2023-06-04T14:23:57;24.20;83.20
44607;DHT22;30315;46.072;14.474;2023-06-04T14:26:24;24.30;83.20
44607;DHT22;30315;46.072;14.474;2023-06-04T14:28:51;24.60;83.30
44607;DHT22;30315;46.072;14.474;2023-06-04T14:31:19;24.70;81.90
44607;DHT22;30315;46.072;14.474;2023-06-04T14:33:46;24.90;80.90
44607;DHT22;30315;46.072;14.474;2023-06-04T14:36:17;25.00;80.50
44607;DHT22;30315;46.072;14.474;2023-06-04T14:38:44;25.10;79.50
44607;DHT22;30315;46.072;14.474;2023-06-04T14:41:12;25.10;78.50
44607;DHT22;30315;46.072;14.474;2023-06-04T14:43:39;25.10;77.60
44607;DHT22;30315;46.072;14.474;2023-06-04T14:46:06;25.20;76.40
44607;DHT22;30315;46.072;14.474;2023-06-04T14:48:33;25.20;75.90
44607;DHT22;30315;46.072;14.474;2023-06-04T14:51:01;25.30;77.30
44607;DHT22;30315;46.072;14.474;2023-06-04T14:53:28;25.40;78.20
44607;DHT22;30315;46.072;14.474;2023-06-04T14:55:55;25.60;78.50
44607;DHT22;30315;46.072;14.474;2023-06-04T14:58:22;25.80;77.20
44607;DHT22;30315;46.072;14.474;2023-06-04T15:00:49;26.10;76.00
44607;DHT22;30315;46.072;14.474;2023-06-04T15:03:16;26.30;76.00
44607;DHT22;30315;46.072;14.474;2023-06-04T15:05:43;26.50;73.50
44607;DHT22;30315;46.072;14.474;2023-06-04T15:08:10;26.70;72.60
44607;DHT22;30315;46.072;14.474;2023-06-04T15:10:37;26.90;71.80
44607;DHT22;30315;46.072;14.474;2023-06-04T15:13:04;27.00;70.90
44607;DHT22;30315;46.072;14.474;2023-06-04T15:15:32;27.20;70.20
44607;DHT22;30315;46.072;14.474;2023-06-04T15:18:01;26.90;68.90
44607;DHT22;30315;46.072;14.474;2023-06-04T15:20:29;27.40;68.00
44607;DHT22;30315;46.072;14.474;2023-06-04T15:22:56;27.50;68.60
44607;DHT22;30315;46.072;14.474;2023-06-04T15:25:23;27.60;68.40
44607;DHT22;30315;46.072;14.474;2023-06-04T15:27:50;27.70;67.30
44607;DHT22;30315;46.072;14.474;2023-06-04T15:30:17;27.80;67.30
44607;DHT22;30315;46.072;14.474;2023-06-04T15:32:44;27.90;67.30
44607;DHT22;30315;46.072;14.474;2023-06-04T15:35:12;27.90;65.60
44607;DHT22;30315;46.072;14.474;2023-06-04T15:38:02;28.00;64.70